sensor_id;sensor_type;location;lat;lon;timestamp;P1;durP1;ratioP1;P2;durP2;ratioP2
14191;SDS011;7177;48.572;7.838;2023-04-12T00:01:38;6.37;;;2.83;;
14191;SDS011;7177;48.572;7.838;2023-04-12T00:04:04;6.00;;;2.70;;
14191;SDS011;7177;48.572;7.838;2023-04-12T00:06:32;5.97;;;2.63;;
14191;SDS011;7177;48.572;7.838;2023-04-12T00:08:59;7.33;;;2.70;;
14191;SDS011;7177;48.572;7.838;2023-04-12T00:11:25;4.97;;;2.70;;
14191;SDS011;7177;48.572;7.838;2023-04-12T00:13:52;8.03;;;2.80;;
14191;SDS011;7177;48.572;7.838;2023-04-12T00:16:18;5.70;;;2.50;;
14191;SDS011;7177;48.572;7.838;2023-04-12T00:18:44;7.50;;;2.77;;
14191;SDS011;7177;48.572;7.838;2023-04-12T00:21:10;4.67;;;2.53;;
14191;SDS011;7177;48.572;7.838;2023-04-12T00:23:35;5.17;;;2.80;;
14191;SDS011;7177;48.572;7.838;2023-04-12T00:26:04;6.87;;;2.70;;
14191;SDS011;7177;48.572;7.838;2023-04-12T00:28:30;7.90;;;3.00;;
14191;SDS011;7177;48.572;7.838;2023-04-12T00:30:56;6.57;;;3.33;;
14191;SDS011;7177;48.572;7.838;2023-04-12T00:33:21;7.03;;;3.37;;
14191;SDS011;7177;48.572;7.838;2023-04-12T00:35:47;6.20;;;3.00;;
14191;SDS011;7177;48.572;7.838;2023-04-12T00:38:12;8.13;;;2.97;;
14191;SDS011;7177;48.572;7.838;2023-04-12T00:40:42;4.30;;;2.80;;
14191;SDS011;7177;48.572;7.838;2023-04-12T00:43:08;6.20;;;2.93;;
14191;SDS011;7177;48.572;7.838;2023-04-12T00:45:39;5.63;;;2.93;;
14191;SDS011;7177;48.572;7.838;2023-04-12T00:48:05;4.07;;;3.00;;
14191;SDS011;7177;48.572;7.838;2023-04-12T00:50:31;7.70;;;3.00;;
14191;SDS011;7177;48.572;7.838;2023-04-12T00:52:59;7.63;;;3.20;;
14191;SDS011;7177;48.572;7.838;2023-04-12T00:55:25;6.67;;;2.90;;
14191;SDS011;7177;48.572;7.838;2023-04-12T00:57:50;7.97;;;2.80;;
14191;SDS011;7177;48.572;7.838;2023-04-12T01:00:16;7.77;;;2.90;;
14191;SDS011;7177;48.572;7.838;2023-04-12T01:02:43;5.10;;;2.87;;
14191;SDS011;7177;48.572;7.838;2023-04-12T01:05:18;7.00;;;3.17;;
14191;SDS011;7177;48.572;7.838;2023-04-12T01:07:53;7.50;;;3.00;;
14191;SDS011;7177;48.572;7.838;2023-04-12T01:16:37;6.33;;;2.60;;
14191;SDS011;7177;48.572;7.838;2023-04-12T01:19:26;7.93;;;3.23;;
14191;SDS011;7177;48.572;7.838;2023-04-12T01:27:56;5.13;;;2.60;;
14191;SDS011;7177;48.572;7.838;2023-04-12T01:30:27;7.57;;;2.67;;
14191;SDS011;7177;48.572;7.838;2023-04-12T01:32:53;6.50;;;3.10;;
14191;SDS011;7177;48.572;7.838;2023-04-12T01:35:21;6.63;;;3.07;;
14191;SDS011;7177;48.572;7.838;2023-04-12T01:37:50;5.47;;;2.50;;
14191;SDS011;7177;48.572;7.838;2023-04-12T01:40:16;5.23;;;2.73;;
14191;SDS011;7177;48.572;7.838;2023-04-12T01:42:43;5.93;;;2.80;;
14191;SDS011;7177;48.572;7.838;2023-04-12T01:45:09;6.97;;;2.70;;
14191;SDS011;7177;48.572;7.838;2023-04-12T01:47:35;6.13;;;2.73;;
14191;SDS011;7177;48.572;7.838;2023-04-12T01:50:19;9.10;;;2.90;;
14191;SDS011;7177;48.572;7.838;2023-04-12T01:52:53;10.13;;;3.27;;
14191;SDS011;7177;48.572;7.838;2023-04-12T01:55:32;5.27;;;2.60;;
14191;SDS011;7177;48.572;7.838;2023-04-12T01:58:01;6.07;;;2.90;;
14191;SDS011;7177;48.572;7.838;2023-04-12T02:00:27;6.13;;;2.90;;
14191;SDS011;7177;48.572;7.838;2023-04-12T02:02:54;6.30;;;2.77;;
14191;SDS011;7177;48.572;7.838;2023-04-12T02:05:21;4.83;;;2.80;;
14191;SDS011;7177;48.572;7.838;2023-04-12T02:07:47;7.27;;;2.80;;
14191;SDS011;7177;48.572;7.838;2023-04-12T02:10:13;7.47;;;3.33;;
14191;SDS011;7177;48.572;7.838;2023-04-12T02:12:39;7.40;;;3.43;;
14191;SDS011;7177;48.572;7.838;2023-04-12T02:15:05;5.97;;;3.20;;
14191;SDS011;7177;48.572;7.838;2023-04-12T02:17:32;6.73;;;3.47;;
14191;SDS011;7177;48.572;7.838;2023-04-12T02:19:58;7.20;;;3.13;;
14191;SDS011;7177;48.572;7.838;2023-04-12T02:22:23;5.53;;;2.93;;
14191;SDS011;7177;48.572;7.838;2023-04-12T02:24:49;5.20;;;2.70;;
14191;SDS011;7177;48.572;7.838;2023-04-12T02:27:14;5.20;;;2.83;;
14191;SDS011;7177;48.572;7.838;2023-04-12T02:29:42;8.23;;;3.30;;
14191;SDS011;7177;48.572;7.838;2023-04-12T02:32:08;6.47;;;2.83;;
14191;SDS011;7177;48.572;7.838;2023-04-12T02:34:34;6.13;;;2.70;;
14191;SDS011;7177;48.572;7.838;2023-04-12T02:37:02;4.27;;;2.57;;
14191;SDS011;7177;48.572;7.838;2023-04-12T02:39:28;9.13;;;3.03;;
14191;SDS011;7177;48.572;7.838;2023-04-12T02:41:56;5.83;;;2.67;;
14191;SDS011;7177;48.572;7.838;2023-04-12T02:44:21;6.53;;;2.73;;
14191;SDS011;7177;48.572;7.838;2023-04-12T02:46:47;8.77;;;2.93;;
14191;SDS011;7177;48.572;7.838;2023-04-12T02:49:12;5.37;;;3.30;;
14191;SDS011;7177;48.572;7.838;2023-04-12T02:51:38;7.40;;;3.23;;
14191;SDS011;7177;48.572;7.838;2023-04-12T02:54:03;7.60;;;3.00;;
14191;SDS011;7177;48.572;7.838;2023-04-12T02:56:29;6.63;;;2.93;;
14191;SDS011;7177;48.572;7.838;2023-04-12T02:58:55;4.17;;;2.67;;
14191;SDS011;7177;48.572;7.838;2023-04-12T03:01:21;6.23;;;3.00;;
14191;SDS011;7177;48.572;7.838;2023-04-12T03:03:46;4.90;;;2.80;;
14191;SDS011;7177;48.572;7.838;2023-04-12T03:06:12;4.30;;;2.80;;
14191;SDS011;7177;48.572;7.838;2023-04-12T03:08:37;6.17;;;2.93;;
14191;SDS011;7177;48.572;7.838;2023-04-12T03:11:03;4.80;;;2.70;;
14191;SDS011;7177;48.572;7.838;2023-04-12T03:13:29;6.27;;;2.87;;
14191;SDS011;7177;48.572;7.838;2023-04-12T03:15:55;5.57;;;2.80;;
14191;SDS011;7177;48.572;7.838;2023-04-12T03:18:22;8.37;;;2.73;;
14191;SDS011;7177;48.572;7.838;2023-04-12T03:20:48;4.40;;;2.63;;
14191;SDS011;7177;48.572;7.838;2023-04-12T03:23:14;6.60;;;3.03;;
14191;SDS011;7177;48.572;7.838;2023-04-12T03:25:40;3.87;;;2.63;;
14191;SDS011;7177;48.572;7.838;2023-04-12T03:28:06;6.70;;;2.80;;
14191;SDS011;7177;48.572;7.838;2023-04-12T03:30:32;4.27;;;2.30;;
14191;SDS011;7177;48.572;7.838;2023-04-12T03:32:57;5.03;;;2.77;;
14191;SDS011;7177;48.572;7.838;2023-04-12T03:35:23;3.57;;;2.53;;
14191;SDS011;7177;48.572;7.838;2023-04-12T03:37:48;5.33;;;2.57;;
14191;SDS011;7177;48.572;7.838;2023-04-12T03:40:14;5.20;;;2.50;;
14191;SDS011;7177;48.572;7.838;2023-04-12T03:42:39;3.67;;;2.40;;
14191;SDS011;7177;48.572;7.838;2023-04-12T03:45:05;5.47;;;2.40;;
14191;SDS011;7177;48.572;7.838;2023-04-12T03:47:31;7.10;;;2.83;;
14191;SDS011;7177;48.572;7.838;2023-04-12T03:50:01;3.97;;;2.63;;
14191;SDS011;7177;48.572;7.838;2023-04-12T03:52:30;7.33;;;2.77;;
14191;SDS011;7177;48.572;7.838;2023-04-12T03:54:56;6.00;;;2.73;;
14191;SDS011;7177;48.572;7.838;2023-04-12T03:57:22;4.93;;;2.67;;
14191;SDS011;7177;48.572;7.838;2023-04-12T03:59:47;8.37;;;2.87;;
14191;SDS011;7177;48.572;7.838;2023-04-12T04:02:13;5.30;;;2.97;;
14191;SDS011;7177;48.572;7.838;2023-04-12T04:04:38;5.97;;;2.90;;
14191;SDS011;7177;48.572;7.838;2023-04-12T04:07:04;6.17;;;2.53;;
14191;SDS011;7177;48.572;7.838;2023-04-12T04:09:30;5.97;;;2.63;;
14191;SDS011;7177;48.572;7.838;2023-04-12T04:11:57;3.53;;;2.17;;
14191;SDS011;7177;48.572;7.838;2023-04-12T04:14:22;5.73;;;2.60;;
14191;SDS011;7177;48.572;7.838;2023-04-12T04:16:48;4.70;;;2.70;;
14191;SDS011;7177;48.572;7.838;2023-04-12T04:19:13;9.17;;;2.63;;
14191;SDS011;7177;48.572;7.838;2023-04-12T04:21:39;6.50;;;2.93;;
14191;SDS011;7177;48.572;7.838;2023-04-12T04:24:06;10.37;;;3.00;;
14191;SDS011;7177;48.572;7.838;2023-04-12T04:26:35;5.83;;;2.67;;
14191;SDS011;7177;48.572;7.838;2023-04-12T04:29:02;7.47;;;2.93;;
14191;SDS011;7177;48.572;7.838;2023-04-12T04:31:29;5.77;;;2.63;;
14191;SDS011;7177;48.572;7.838;2023-04-12T04:33:58;6.67;;;3.40;;
14191;SDS011;7177;48.572;7.838;2023-04-12T04:36:25;3.93;;;2.87;;
14191;SDS011;7177;48.572;7.838;2023-04-12T04:38:51;5.30;;;2.87;;
14191;SDS011;7177;48.572;7.838;2023-04-12T04:41:16;8.23;;;3.07;;
14191;SDS011;7177;48.572;7.838;2023-04-12T04:43:46;5.40;;;2.87;;
14191;SDS011;7177;48.572;7.838;2023-04-12T04:46:13;5.43;;;2.90;;
14191;SDS011;7177;48.572;7.838;2023-04-12T04:48:38;7.70;;;3.33;;
14191;SDS011;7177;48.572;7.838;2023-04-12T04:51:05;8.80;;;3.40;;
14191;SDS011;7177;48.572;7.838;2023-04-12T04:53:31;6.80;;;3.20;;
14191;SDS011;7177;48.572;7.838;2023-04-12T04:55:57;4.53;;;3.20;;
14191;SDS011;7177;48.572;7.838;2023-04-12T04:58:23;7.67;;;3.50;;
14191;SDS011;7177;48.572;7.838;2023-04-12T05:00:49;5.83;;;3.07;;
14191;SDS011;7177;48.572;7.838;2023-04-12T05:03:14;7.83;;;3.73;;
14191;SDS011;7177;48.572;7.838;2023-04-12T05:05:40;6.00;;;3.67;;
14191;SDS011;7177;48.572;7.838;2023-04-12T05:08:05;9.30;;;3.67;;
14191;SDS011;7177;48.572;7.838;2023-04-12T05:10:31;4.00;;;3.07;;
14191;SDS011;7177;48.572;7.838;2023-04-12T05:12:56;9.20;;;3.90;;
14191;SDS011;7177;48.572;7.838;2023-04-12T05:15:22;7.67;;;3.87;;
14191;SDS011;7177;48.572;7.838;2023-04-12T05:17:48;9.67;;;3.70;;
14191;SDS011;7177;48.572;7.838;2023-04-12T05:20:14;10.20;;;4.07;;
14191;SDS011;7177;48.572;7.838;2023-04-12T05:22:39;5.87;;;3.43;;
14191;SDS011;7177;48.572;7.838;2023-04-12T05:25:05;7.00;;;3.63;;
14191;SDS011;7177;48.572;7.838;2023-04-12T05:27:30;7.43;;;3.43;;
14191;SDS011;7177;48.572;7.838;2023-04-12T05:29:56;5.10;;;3.90;;
14191;SDS011;7177;48.572;7.838;2023-04-12T05:32:23;12.37;;;3.93;;
14191;SDS011;7177;48.572;7.838;2023-04-12T05:34:49;9.60;;;4.17;;
14191;SDS011;7177;48.572;7.838;2023-04-12T05:37:14;9.33;;;4.60;;
14191;SDS011;7177;48.572;7.838;2023-04-12T05:39:40;6.67;;;3.50;;
14191;SDS011;7177;48.572;7.838;2023-04-12T05:42:05;5.47;;;3.67;;
14191;SDS011;7177;48.572;7.838;2023-04-12T05:44:33;7.17;;;3.73;;
14191;SDS011;7177;48.572;7.838;2023-04-12T05:47:00;9.97;;;4.67;;
14191;SDS011;7177;48.572;7.838;2023-04-12T05:49:27;5.63;;;3.83;;
14191;SDS011;7177;48.572;7.838;2023-04-12T05:51:55;10.53;;;4.10;;
14191;SDS011;7177;48.572;7.838;2023-04-12T05:54:20;7.33;;;4.30;;
14191;SDS011;7177;48.572;7.838;2023-04-12T05:56:46;10.80;;;5.03;;
14191;SDS011;7177;48.572;7.838;2023-04-12T05:59:11;8.13;;;4.40;;
14191;SDS011;7177;48.572;7.838;2023-04-12T06:01:37;5.67;;;4.10;;
14191;SDS011;7177;48.572;7.838;2023-04-12T06:04:08;7.13;;;4.00;;
14191;SDS011;7177;48.572;7.838;2023-04-12T06:06:34;5.83;;;3.80;;
14191;SDS011;7177;48.572;7.838;2023-04-12T06:08:59;10.27;;;4.40;;
14191;SDS011;7177;48.572;7.838;2023-04-12T06:11:28;8.57;;;4.33;;
14191;SDS011;7177;48.572;7.838;2023-04-12T06:13:53;7.53;;;3.77;;
14191;SDS011;7177;48.572;7.838;2023-04-12T06:16:19;7.33;;;4.50;;
14191;SDS011;7177;48.572;7.838;2023-04-12T06:18:45;10.17;;;4.20;;
14191;SDS011;7177;48.572;7.838;2023-04-12T06:21:11;6.50;;;3.70;;
14191;SDS011;7177;48.572;7.838;2023-04-12T06:23:37;5.07;;;3.73;;
14191;SDS011;7177;48.572;7.838;2023-04-12T06:26:02;6.10;;;4.10;;
14191;SDS011;7177;48.572;7.838;2023-04-12T06:28:28;9.87;;;4.23;;
14191;SDS011;7177;48.572;7.838;2023-04-12T06:30:53;7.47;;;4.53;;
14191;SDS011;7177;48.572;7.838;2023-04-12T06:33:19;8.80;;;4.40;;
14191;SDS011;7177;48.572;7.838;2023-04-12T06:35:46;10.27;;;4.83;;
14191;SDS011;7177;48.572;7.838;2023-04-12T06:38:12;8.50;;;5.23;;
14191;SDS011;7177;48.572;7.838;2023-04-12T06:40:38;13.70;;;5.40;;
14191;SDS011;7177;48.572;7.838;2023-04-12T06:43:03;7.47;;;4.57;;
14191;SDS011;7177;48.572;7.838;2023-04-12T06:45:29;11.73;;;5.97;;
14191;SDS011;7177;48.572;7.838;2023-04-12T06:47:55;10.10;;;5.73;;
14191;SDS011;7177;48.572;7.838;2023-04-12T06:50:21;11.63;;;5.10;;
14191;SDS011;7177;48.572;7.838;2023-04-12T06:52:46;11.73;;;5.40;;
14191;SDS011;7177;48.572;7.838;2023-04-12T06:55:12;8.33;;;5.43;;
14191;SDS011;7177;48.572;7.838;2023-04-12T06:57:40;11.73;;;5.30;;
14191;SDS011;7177;48.572;7.838;2023-04-12T07:00:06;7.67;;;5.00;;
14191;SDS011;7177;48.572;7.838;2023-04-12T07:02:32;8.40;;;4.73;;
14191;SDS011;7177;48.572;7.838;2023-04-12T07:04:58;9.73;;;4.80;;
14191;SDS011;7177;48.572;7.838;2023-04-12T07:07:24;8.97;;;4.60;;
14191;SDS011;7177;48.572;7.838;2023-04-12T07:09:49;9.07;;;4.57;;
14191;SDS011;7177;48.572;7.838;2023-04-12T07:12:16;8.63;;;4.50;;
14191;SDS011;7177;48.572;7.838;2023-04-12T07:14:42;9.80;;;4.13;;
14191;SDS011;7177;48.572;7.838;2023-04-12T07:17:07;6.37;;;4.17;;
14191;SDS011;7177;48.572;7.838;2023-04-12T07:19:33;8.80;;;3.83;;
14191;SDS011;7177;48.572;7.838;2023-04-12T07:21:58;6.70;;;4.30;;
14191;SDS011;7177;48.572;7.838;2023-04-12T07:24:24;8.50;;;3.80;;
14191;SDS011;7177;48.572;7.838;2023-04-12T07:26:53;10.90;;;4.90;;
14191;SDS011;7177;48.572;7.838;2023-04-12T07:29:19;7.13;;;4.47;;
14191;SDS011;7177;48.572;7.838;2023-04-12T07:31:45;11.77;;;4.40;;
14191;SDS011;7177;48.572;7.838;2023-04-12T07:34:10;5.90;;;4.43;;
14191;SDS011;7177;48.572;7.838;2023-04-12T07:36:36;8.03;;;4.90;;
14191;SDS011;7177;48.572;7.838;2023-04-12T07:39:02;12.80;;;5.03;;
14191;SDS011;7177;48.572;7.838;2023-04-12T07:41:27;9.53;;;5.07;;
14191;SDS011;7177;48.572;7.838;2023-04-12T07:43:53;11.57;;;5.43;;
14191;SDS011;7177;48.572;7.838;2023-04-12T07:46:19;10.53;;;5.17;;
14191;SDS011;7177;48.572;7.838;2023-04-12T07:48:44;8.30;;;4.90;;
14191;SDS011;7177;48.572;7.838;2023-04-12T07:51:10;9.50;;;4.03;;
14191;SDS011;7177;48.572;7.838;2023-04-12T07:53:36;10.03;;;4.07;;
14191;SDS011;7177;48.572;7.838;2023-04-12T07:56:01;8.17;;;3.53;;
14191;SDS011;7177;48.572;7.838;2023-04-12T07:58:31;8.20;;;4.00;;
14191;SDS011;7177;48.572;7.838;2023-04-12T08:00:58;6.83;;;3.53;;
14191;SDS011;7177;48.572;7.838;2023-04-12T08:03:24;8.80;;;3.70;;
14191;SDS011;7177;48.572;7.838;2023-04-12T08:05:50;5.80;;;3.80;;
14191;SDS011;7177;48.572;7.838;2023-04-12T08:08:17;8.23;;;3.50;;
14191;SDS011;7177;48.572;7.838;2023-04-12T08:10:46;6.37;;;3.30;;
14191;SDS011;7177;48.572;7.838;2023-04-12T08:13:12;4.90;;;3.30;;
14191;SDS011;7177;48.572;7.838;2023-04-12T08:15:38;5.10;;;3.03;;
14191;SDS011;7177;48.572;7.838;2023-04-12T08:18:03;7.73;;;3.63;;
14191;SDS011;7177;48.572;7.838;2023-04-12T08:20:29;7.50;;;4.23;;
14191;SDS011;7177;48.572;7.838;2023-04-12T08:22:55;8.47;;;4.00;;
14191;SDS011;7177;48.572;7.838;2023-04-12T08:25:21;9.00;;;4.17;;
14191;SDS011;7177;48.572;7.838;2023-04-12T08:27:47;6.87;;;4.00;;
14191;SDS011;7177;48.572;7.838;2023-04-12T08:30:14;7.50;;;4.07;;
14191;SDS011;7177;48.572;7.838;2023-04-12T08:32:39;5.67;;;3.70;;
14191;SDS011;7177;48.572;7.838;2023-04-12T08:35:05;7.00;;;3.50;;
14191;SDS011;7177;48.572;7.838;2023-04-12T08:37:31;5.57;;;3.67;;
14191;SDS011;7177;48.572;7.838;2023-04-12T08:39:58;6.87;;;3.47;;
14191;SDS011;7177;48.572;7.838;2023-04-12T08:42:25;7.97;;;3.50;;
14191;SDS011;7177;48.572;7.838;2023-04-12T08:44:51;8.23;;;3.73;;
14191;SDS011;7177;48.572;7.838;2023-04-12T08:47:17;10.27;;;4.00;;
14191;SDS011;7177;48.572;7.838;2023-04-12T08:49:44;5.30;;;3.03;;
14191;SDS011;7177;48.572;7.838;2023-04-12T08:52:10;9.77;;;4.23;;
14191;SDS011;7177;48.572;7.838;2023-04-12T08:54:36;6.67;;;4.03;;
14191;SDS011;7177;48.572;7.838;2023-04-12T08:57:02;6.53;;;4.07;;
14191;SDS011;7177;48.572;7.838;2023-04-12T08:59:30;5.77;;;3.47;;
14191;SDS011;7177;48.572;7.838;2023-04-12T09:01:57;8.43;;;3.57;;
14191;SDS011;7177;48.572;7.838;2023-04-12T09:04:23;11.50;;;3.77;;
14191;SDS011;7177;48.572;7.838;2023-04-12T09:06:53;5.97;;;3.50;;
14191;SDS011;7177;48.572;7.838;2023-04-12T09:09:30;8.63;;;3.90;;
14191;SDS011;7177;48.572;7.838;2023-04-12T09:12:13;9.83;;;4.00;;
14191;SDS011;7177;48.572;7.838;2023-04-12T09:14:40;6.23;;;3.63;;
14191;SDS011;7177;48.572;7.838;2023-04-12T09:17:24;6.37;;;3.47;;
14191;SDS011;7177;48.572;7.838;2023-04-12T09:19:51;8.60;;;3.20;;
14191;SDS011;7177;48.572;7.838;2023-04-12T09:22:17;7.77;;;3.50;;
14191;SDS011;7177;48.572;7.838;2023-04-12T09:24:46;8.37;;;3.70;;
14191;SDS011;7177;48.572;7.838;2023-04-12T09:27:14;8.03;;;3.07;;
14191;SDS011;7177;48.572;7.838;2023-04-12T09:29:40;7.03;;;3.53;;
14191;SDS011;7177;48.572;7.838;2023-04-12T09:32:06;4.27;;;2.77;;
14191;SDS011;7177;48.572;7.838;2023-04-12T09:34:33;5.97;;;3.03;;
14191;SDS011;7177;48.572;7.838;2023-04-12T09:37:13;6.33;;;3.00;;
14191;SDS011;7177;48.572;7.838;2023-04-12T09:39:40;5.80;;;3.30;;
14191;SDS011;7177;48.572;7.838;2023-04-12T09:42:06;6.20;;;3.00;;
14191;SDS011;7177;48.572;7.838;2023-04-12T09:44:33;5.40;;;2.97;;
14191;SDS011;7177;48.572;7.838;2023-04-12T09:47:02;4.03;;;2.60;;
14191;SDS011;7177;48.572;7.838;2023-04-12T09:49:41;5.93;;;3.67;;
14191;SDS011;7177;48.572;7.838;2023-04-12T09:52:09;5.20;;;3.13;;
14191;SDS011;7177;48.572;7.838;2023-04-12T09:54:36;6.60;;;3.10;;
14191;SDS011;7177;48.572;7.838;2023-04-12T09:57:09;6.50;;;3.00;;
14191;SDS011;7177;48.572;7.838;2023-04-12T09:59:37;5.43;;;2.93;;
14191;SDS011;7177;48.572;7.838;2023-04-12T10:02:12;7.00;;;3.20;;
14191;SDS011;7177;48.572;7.838;2023-04-12T10:04:40;8.23;;;3.07;;
14191;SDS011;7177;48.572;7.838;2023-04-12T10:07:06;6.00;;;2.97;;
14191;SDS011;7177;48.572;7.838;2023-04-12T10:09:38;6.50;;;2.77;;
14191;SDS011;7177;48.572;7.838;2023-04-12T10:12:05;5.20;;;2.70;;
14191;SDS011;7177;48.572;7.838;2023-04-12T10:14:32;6.23;;;3.03;;
14191;SDS011;7177;48.572;7.838;2023-04-12T10:16:58;8.53;;;3.40;;
14191;SDS011;7177;48.572;7.838;2023-04-12T10:19:26;5.93;;;2.70;;
14191;SDS011;7177;48.572;7.838;2023-04-12T10:21:53;5.03;;;2.67;;
14191;SDS011;7177;48.572;7.838;2023-04-12T10:24:21;4.90;;;2.90;;
14191;SDS011;7177;48.572;7.838;2023-04-12T10:26:51;6.73;;;2.80;;
14191;SDS011;7177;48.572;7.838;2023-04-12T10:29:31;6.83;;;2.83;;
14191;SDS011;7177;48.572;7.838;2023-04-12T10:35:04;6.70;;;2.70;;
14191;SDS011;7177;48.572;7.838;2023-04-12T10:38:18;3.43;;;2.30;;
14191;SDS011;7177;48.572;7.838;2023-04-12T10:40:29;5.30;;;2.40;;
14191;SDS011;7177;48.572;7.838;2023-04-12T10:45:44;5.33;;;2.40;;
14191;SDS011;7177;48.572;7.838;2023-04-12T10:51:16;4.67;;;2.40;;
14191;SDS011;7177;48.572;7.838;2023-04-12T10:58:59;6.20;;;2.30;;
14191;SDS011;7177;48.572;7.838;2023-04-12T11:01:26;4.33;;;2.07;;
14191;SDS011;7177;48.572;7.838;2023-04-12T11:09:29;7.13;;;2.80;;
14191;SDS011;7177;48.572;7.838;2023-04-12T11:14:44;6.07;;;3.03;;
14191;SDS011;7177;48.572;7.838;2023-04-12T11:22:07;5.50;;;2.50;;
14191;SDS011;7177;48.572;7.838;2023-04-12T11:24:46;5.83;;;2.70;;
14191;SDS011;7177;48.572;7.838;2023-04-12T11:27:13;4.43;;;2.93;;
14191;SDS011;7177;48.572;7.838;2023-04-12T11:29:40;5.90;;;2.90;;
14191;SDS011;7177;48.572;7.838;2023-04-12T11:32:09;5.23;;;3.37;;
14191;SDS011;7177;48.572;7.838;2023-04-12T11:34:37;4.17;;;2.60;;
14191;SDS011;7177;48.572;7.838;2023-04-12T11:37:04;6.50;;;2.97;;
14191;SDS011;7177;48.572;7.838;2023-04-12T11:39:35;11.77;;;2.80;;
14191;SDS011;7177;48.572;7.838;2023-04-12T11:42:02;7.67;;;2.40;;
14191;SDS011;7177;48.572;7.838;2023-04-12T11:44:28;5.43;;;2.60;;
14191;SDS011;7177;48.572;7.838;2023-04-12T11:46:57;3.63;;;2.60;;
14191;SDS011;7177;48.572;7.838;2023-04-12T11:49:24;3.47;;;2.70;;
14191;SDS011;7177;48.572;7.838;2023-04-12T11:51:56;7.57;;;2.63;;
14191;SDS011;7177;48.572;7.838;2023-04-12T11:54:27;4.77;;;2.80;;
14191;SDS011;7177;48.572;7.838;2023-04-12T11:56:57;3.87;;;2.40;;
14191;SDS011;7177;48.572;7.838;2023-04-12T11:59:32;4.60;;;2.33;;
14191;SDS011;7177;48.572;7.838;2023-04-12T12:02:01;5.63;;;2.60;;
14191;SDS011;7177;48.572;7.838;2023-04-12T12:04:27;6.27;;;2.73;;
14191;SDS011;7177;48.572;7.838;2023-04-12T12:06:57;7.80;;;3.17;;
14191;SDS011;7177;48.572;7.838;2023-04-12T12:09:26;6.97;;;3.07;;
14191;SDS011;7177;48.572;7.838;2023-04-12T12:11:52;3.80;;;2.30;;
14191;SDS011;7177;48.572;7.838;2023-04-12T12:14:19;7.43;;;2.43;;
14191;SDS011;7177;48.572;7.838;2023-04-12T12:16:54;5.63;;;2.37;;
14191;SDS011;7177;48.572;7.838;2023-04-12T12:19:31;6.90;;;2.50;;
14191;SDS011;7177;48.572;7.838;2023-04-12T12:22:06;4.27;;;2.17;;
14191;SDS011;7177;48.572;7.838;2023-04-12T12:24:33;4.87;;;2.53;;
14191;SDS011;7177;48.572;7.838;2023-04-12T12:27:00;3.87;;;2.20;;
14191;SDS011;7177;48.572;7.838;2023-04-12T12:29:33;4.57;;;2.50;;
14191;SDS011;7177;48.572;7.838;2023-04-12T12:32:00;5.03;;;2.07;;
14191;SDS011;7177;48.572;7.838;2023-04-12T12:34:30;3.83;;;2.00;;
14191;SDS011;7177;48.572;7.838;2023-04-12T12:36:57;3.83;;;2.20;;
14191;SDS011;7177;48.572;7.838;2023-04-12T12:39:23;4.63;;;2.10;;
14191;SDS011;7177;48.572;7.838;2023-04-12T12:41:52;5.80;;;2.03;;
14191;SDS011;7177;48.572;7.838;2023-04-12T12:44:22;4.10;;;2.13;;
14191;SDS011;7177;48.572;7.838;2023-04-12T12:46:48;4.80;;;2.43;;
14191;SDS011;7177;48.572;7.838;2023-04-12T12:49:14;4.10;;;2.00;;
14191;SDS011;7177;48.572;7.838;2023-04-12T12:51:40;3.60;;;2.53;;
14191;SDS011;7177;48.572;7.838;2023-04-12T12:54:06;2.97;;;2.10;;
14191;SDS011;7177;48.572;7.838;2023-04-12T12:56:31;5.63;;;2.27;;
14191;SDS011;7177;48.572;7.838;2023-04-12T12:58:59;3.00;;;2.13;;
14191;SDS011;7177;48.572;7.838;2023-04-12T13:01:24;4.23;;;2.27;;
14191;SDS011;7177;48.572;7.838;2023-04-12T13:03:51;5.50;;;2.70;;
14191;SDS011;7177;48.572;7.838;2023-04-12T13:06:17;4.43;;;2.50;;
14191;SDS011;7177;48.572;7.838;2023-04-12T13:08:43;5.63;;;2.60;;
14191;SDS011;7177;48.572;7.838;2023-04-12T13:11:08;5.30;;;3.00;;
14191;SDS011;7177;48.572;7.838;2023-04-12T13:13:34;5.27;;;2.60;;
14191;SDS011;7177;48.572;7.838;2023-04-12T13:15:59;7.57;;;2.60;;
14191;SDS011;7177;48.572;7.838;2023-04-12T13:18:25;5.23;;;2.50;;
14191;SDS011;7177;48.572;7.838;2023-04-12T13:20:50;4.87;;;2.50;;
14191;SDS011;7177;48.572;7.838;2023-04-12T13:23:16;3.23;;;2.50;;
14191;SDS011;7177;48.572;7.838;2023-04-12T13:25:41;7.10;;;2.70;;
14191;SDS011;7177;48.572;7.838;2023-04-12T13:28:07;5.63;;;2.80;;
14191;SDS011;7177;48.572;7.838;2023-04-12T13:30:32;3.23;;;2.40;;
14191;SDS011;7177;48.572;7.838;2023-04-12T13:32:58;6.43;;;2.40;;
14191;SDS011;7177;48.572;7.838;2023-04-12T13:35:23;6.00;;;2.50;;
14191;SDS011;7177;48.572;7.838;2023-04-12T13:37:49;4.93;;;2.20;;
14191;SDS011;7177;48.572;7.838;2023-04-12T13:40:14;4.40;;;2.30;;
14191;SDS011;7177;48.572;7.838;2023-04-12T13:42:40;4.40;;;2.53;;
14191;SDS011;7177;48.572;7.838;2023-04-12T13:45:06;5.43;;;2.40;;
14191;SDS011;7177;48.572;7.838;2023-04-12T13:47:32;6.67;;;3.10;;
14191;SDS011;7177;48.572;7.838;2023-04-12T13:49:58;11.50;;;2.83;;
14191;SDS011;7177;48.572;7.838;2023-04-12T13:52:27;10.40;;;2.73;;
14191;SDS011;7177;48.572;7.838;2023-04-12T13:54:52;6.53;;;2.60;;
14191;SDS011;7177;48.572;7.838;2023-04-12T13:57:18;4.30;;;2.33;;
14191;SDS011;7177;48.572;7.838;2023-04-12T13:59:43;4.90;;;1.60;;
14191;SDS011;7177;48.572;7.838;2023-04-12T14:02:09;3.03;;;1.10;;
14191;SDS011;7177;48.572;7.838;2023-04-12T14:04:34;3.20;;;1.33;;
14191;SDS011;7177;48.572;7.838;2023-04-12T14:07:00;1.00;;;0.90;;
14191;SDS011;7177;48.572;7.838;2023-04-12T14:11:52;1.30;;;1.00;;
14191;SDS011;7177;48.572;7.838;2023-04-12T14:14:22;2.80;;;1.10;;
14191;SDS011;7177;48.572;7.838;2023-04-12T14:16:49;1.93;;;1.00;;
14191;SDS011;7177;48.572;7.838;2023-04-12T14:19:17;2.27;;;0.70;;
14191;SDS011;7177;48.572;7.838;2023-04-12T14:21:43;2.70;;;1.10;;
14191;SDS011;7177;48.572;7.838;2023-04-12T14:24:08;1.83;;;1.00;;
14191;SDS011;7177;48.572;7.838;2023-04-12T14:26:34;1.27;;;0.90;;
14191;SDS011;7177;48.572;7.838;2023-04-12T14:29:00;4.83;;;1.00;;
14191;SDS011;7177;48.572;7.838;2023-04-12T14:31:26;1.07;;;0.90;;
14191;SDS011;7177;48.572;7.838;2023-04-12T14:33:52;1.70;;;1.10;;
14191;SDS011;7177;48.572;7.838;2023-04-12T14:36:18;1.60;;;0.83;;
14191;SDS011;7177;48.572;7.838;2023-04-12T14:38:43;1.37;;;1.00;;
14191;SDS011;7177;48.572;7.838;2023-04-12T14:41:10;2.83;;;1.27;;
14191;SDS011;7177;48.572;7.838;2023-04-12T14:43:36;2.03;;;1.00;;
14191;SDS011;7177;48.572;7.838;2023-04-12T14:46:01;3.13;;;1.10;;
14191;SDS011;7177;48.572;7.838;2023-04-12T14:48:27;3.00;;;1.10;;
14191;SDS011;7177;48.572;7.838;2023-04-12T14:50:52;4.73;;;1.37;;
14191;SDS011;7177;48.572;7.838;2023-04-12T14:53:21;5.23;;;1.20;;
14191;SDS011;7177;48.572;7.838;2023-04-12T14:55:47;3.20;;;1.50;;
14191;SDS011;7177;48.572;7.838;2023-04-12T14:58:12;3.40;;;1.20;;
14191;SDS011;7177;48.572;7.838;2023-04-12T15:00:38;4.67;;;1.27;;
14191;SDS011;7177;48.572;7.838;2023-04-12T15:03:04;2.37;;;1.70;;
14191;SDS011;7177;48.572;7.838;2023-04-12T15:05:31;1.37;;;1.13;;
14191;SDS011;7177;48.572;7.838;2023-04-12T15:07:57;2.67;;;1.30;;
14191;SDS011;7177;48.572;7.838;2023-04-12T15:10:22;3.37;;;1.30;;
14191;SDS011;7177;48.572;7.838;2023-04-12T15:12:49;3.70;;;1.90;;
14191;SDS011;7177;48.572;7.838;2023-04-12T15:15:15;4.70;;;2.10;;
14191;SDS011;7177;48.572;7.838;2023-04-12T15:17:41;2.43;;;1.60;;
14191;SDS011;7177;48.572;7.838;2023-04-12T15:20:07;3.70;;;1.50;;
14191;SDS011;7177;48.572;7.838;2023-04-12T15:22:34;3.03;;;1.53;;
14191;SDS011;7177;48.572;7.838;2023-04-12T15:25:00;1.30;;;1.20;;
14191;SDS011;7177;48.572;7.838;2023-04-12T15:27:26;3.43;;;1.50;;
14191;SDS011;7177;48.572;7.838;2023-04-12T15:29:52;1.93;;;1.30;;
14191;SDS011;7177;48.572;7.838;2023-04-12T15:32:17;1.70;;;1.40;;
14191;SDS011;7177;48.572;7.838;2023-04-12T15:34:43;2.13;;;1.13;;
14191;SDS011;7177;48.572;7.838;2023-04-12T15:37:09;1.80;;;0.90;;
14191;SDS011;7177;48.572;7.838;2023-04-12T15:39:34;2.57;;;1.30;;
14191;SDS011;7177;48.572;7.838;2023-04-12T15:42:00;1.37;;;1.10;;